createdAt,value
2023-04-22T00:02:03.239Z,46.54
2023-04-22T00:04:30.069Z,46.40
2023-04-22T00:06:56.736Z,46.54
2023-04-22T00:09:24.025Z,46.42
2023-04-22T00:11:50.581Z,46.58
2023-04-22T00:14:17.152Z,46.39
2023-04-22T00:16:44.136Z,46.36
2023-04-22T00:19:10.793Z,46.69
2023-04-22T00:21:37.313Z,46.52
2023-04-22T00:24:04.024Z,46.39
2023-04-22T00:26:30.553Z,46.78
2023-04-22T00:28:57.207Z,46.70
2023-04-22T00:31:23.877Z,46.60
2023-04-22T00:33:50.494Z,46.43
2023-04-22T00:36:17.010Z,46.59
2023-04-22T00:38:49.060Z,46.38
2023-04-22T00:41:15.559Z,46.82
2023-04-22T00:43:42.081Z,46.92
2023-04-22T00:46:09.162Z,46.46
2023-04-22T00:48:38.985Z,46.58
2023-04-22T00:51:06.193Z,46.80
2023-04-22T00:53:32.826Z,46.70
2023-04-22T00:55:59.647Z,46.88
2023-04-22T00:58:29.866Z,46.19
2023-04-22T01:00:56.843Z,46.58
2023-04-22T01:03:24.265Z,46.02
2023-04-22T01:07:59.302Z,46.64
2023-04-22T01:10:25.838Z,46.68
2023-04-22T01:12:52.416Z,46.47
2023-04-22T01:15:19.151Z,46.36
2023-04-22T01:17:45.912Z,46.05
2023-04-22T01:20:13.888Z,46.27
2023-04-22T01:22:42.287Z,46.12
2023-04-22T01:25:11.154Z,46.16
2023-04-22T01:27:39.223Z,45.92
2023-04-22T01:30:07.171Z,45.67
2023-04-22T01:32:33.775Z,45.50
2023-04-22T01:35:00.428Z,45.79
2023-04-22T01:37:26.985Z,45.59
2023-04-22T01:39:53.673Z,45.17
2023-04-22T01:42:20.358Z,45.08
2023-04-22T01:44:47.189Z,45.08
2023-04-22T01:47:13.721Z,45.07
2023-04-22T01:49:40.653Z,45.06
2023-04-22T01:52:07.655Z,45.45
2023-04-22T01:54:34.905Z,45.38
2023-04-22T01:57:10.321Z,45.22
2023-04-22T01:59:37.340Z,45.13
2023-04-22T02:02:04.022Z,45.08
2023-04-22T02:04:30.642Z,45.24
2023-04-22T02:06:57.194Z,44.96
2023-04-22T02:09:23.752Z,45.08
2023-04-22T02:11:50.303Z,45.34
2023-04-22T02:14:16.825Z,45.11
2023-04-22T02:16:43.467Z,45.27
2023-04-22T02:19:10.125Z,44.87
2023-04-22T02:21:36.817Z,44.87
2023-04-22T02:24:03.484Z,45.46
2023-04-22T02:26:30.822Z,45.02
2023-04-22T02:28:57.397Z,45.16
2023-04-22T02:31:24.054Z,45.05
2023-04-22T02:33:50.598Z,45.06
2023-04-22T02:36:17.246Z,45.30
2023-04-22T02:38:43.873Z,45.66
2023-04-22T02:41:10.639Z,45.49
2023-04-22T02:43:38.009Z,44.84
2023-04-22T02:46:04.940Z,44.88
2023-04-22T02:48:31.581Z,45.17
2023-04-22T02:50:58.080Z,44.91
2023-04-22T02:53:24.580Z,44.80
2023-04-22T02:55:52.347Z,44.57
2023-04-22T02:58:18.883Z,44.72
2023-04-22T03:00:45.582Z,44.48
2023-04-22T03:03:13.146Z,44.63
2023-04-22T03:05:39.861Z,44.87
2023-04-22T03:08:06.679Z,44.58
2023-04-22T03:10:33.340Z,44.76
2023-04-22T03:12:59.856Z,44.63
2023-04-22T03:15:26.373Z,44.87
2023-04-22T03:17:52.874Z,44.79
2023-04-22T03:20:20.506Z,44.24
2023-04-22T03:22:47.048Z,44.69
2023-04-22T03:25:13.965Z,44.46
2023-04-22T03:27:40.868Z,44.43
2023-04-22T03:30:08.044Z,44.73
2023-04-22T03:32:34.546Z,44.46
2023-04-22T03:35:01.278Z,44.64
2023-04-22T03:37:28.358Z,44.56
2023-04-22T03:39:54.879Z,44.87
2023-04-22T03:42:21.431Z,44.92
2023-04-22T03:44:47.957Z,45.01
2023-04-22T03:47:14.504Z,44.91
2023-04-22T03:49:41.692Z,44.51
2023-04-22T03:52:08.427Z,44.68
2023-04-22T03:54:34.973Z,44.79
2023-04-22T03:57:01.571Z,44.54
2023-04-22T03:59:28.081Z,45.08
2023-04-22T04:01:54.672Z,44.69
2023-04-22T04:04:23.285Z,45.19
2023-04-22T04:06:50.001Z,44.94
2023-04-22T04:09:16.558Z,44.77
2023-04-22T04:11:43.225Z,44.97
2023-04-22T04:14:09.791Z,44.60
2023-04-22T04:16:36.456Z,44.64
2023-04-22T04:19:03.683Z,44.78
2023-04-22T04:21:33.370Z,45.11
2023-04-22T04:24:00.348Z,45.07
2023-04-22T04:26:29.503Z,45.02
2023-04-22T04:28:56.053Z,45.00
2023-04-22T04:31:24.727Z,44.33
2023-04-22T04:33:52.427Z,45.20
2023-04-22T04:36:19.779Z,44.73
2023-04-22T04:38:47.741Z,45.00
2023-04-22T04:41:14.532Z,44.86
2023-04-22T04:43:41.167Z,44.84
2023-04-22T04:46:08.380Z,44.67
2023-04-22T04:48:36.195Z,44.48
2023-04-22T04:51:04.102Z,44.68
2023-04-22T04:53:30.610Z,44.72
2023-04-22T04:55:57.202Z,44.95
2023-04-22T04:58:23.735Z,44.41
2023-04-22T05:00:50.313Z,44.41
2023-04-22T05:03:16.964Z,44.46
2023-04-22T05:05:43.784Z,44.57
2023-04-22T05:08:10.294Z,44.80
2023-04-22T05:10:36.843Z,44.75
2023-04-22T05:13:04.456Z,44.65
2023-04-22T05:15:31.191Z,44.45
2023-04-22T05:17:57.798Z,44.93
2023-04-22T05:20:24.416Z,44.49
2023-04-22T05:22:50.998Z,44.74
2023-04-22T05:25:17.644Z,44.51
2023-04-22T05:27:44.178Z,44.65
2023-04-22T05:30:10.975Z,45.01
2023-04-22T05:32:37.541Z,44.45
2023-04-22T05:35:04.346Z,44.61
2023-04-22T05:37:31.166Z,44.66
2023-04-22T05:39:57.774Z,44.62
2023-04-22T05:42:24.294Z,45.21
2023-04-22T05:44:51.229Z,45.35
2023-04-22T05:47:17.746Z,45.07
2023-04-22T05:49:44.267Z,45.66
2023-04-22T05:52:10.781Z,45.62
2023-04-22T05:54:37.668Z,45.72
2023-04-22T05:57:04.339Z,45.62
2023-04-22T05:59:30.842Z,45.73
2023-04-22T06:01:57.378Z,45.52
2023-04-22T06:04:24.435Z,46.05
2023-04-22T06:06:53.899Z,46.07
2023-04-22T06:09:21.770Z,45.89
2023-04-22T06:11:48.501Z,45.86
2023-04-22T06:14:15.138Z,46.19
2023-04-22T06:16:41.862Z,46.58
2023-04-22T06:19:08.936Z,46.08
2023-04-22T06:21:37.183Z,46.46
2023-04-22T06:24:06.081Z,46.27
2023-04-22T06:26:32.630Z,46.42
2023-04-22T06:28:59.169Z,46.10
2023-04-22T06:31:25.784Z,46.60
2023-04-22T06:33:52.427Z,46.58
2023-04-22T06:36:18.990Z,46.30
2023-04-22T06:38:45.594Z,46.32
2023-04-22T06:41:12.172Z,46.57
2023-04-22T06:43:38.720Z,46.49
2023-04-22T06:46:05.645Z,46.24
2023-04-22T06:48:32.184Z,46.29
2023-04-22T06:50:58.738Z,46.14
2023-04-22T06:53:25.282Z,46.66
2023-04-22T06:55:53.279Z,46.55
2023-04-22T06:58:20.243Z,46.57
2023-04-22T07:00:46.785Z,46.22
2023-04-22T07:03:13.385Z,46.27
2023-04-22T07:05:43.197Z,46.10
2023-04-22T07:08:09.737Z,46.39
2023-04-22T07:10:36.288Z,45.87
2023-04-22T07:13:02.824Z,46.12
2023-04-22T07:15:29.448Z,46.16
2023-04-22T07:17:56.052Z,45.76
2023-04-22T07:20:22.678Z,46.02
2023-04-22T07:22:49.168Z,45.82
2023-04-22T07:25:15.829Z,45.44
2023-04-22T07:27:42.329Z,45.90
2023-04-22T07:30:09.577Z,45.75
2023-04-22T07:32:36.072Z,45.80
2023-04-22T07:35:02.644Z,45.43
2023-04-22T07:37:29.220Z,45.82
2023-04-22T07:39:55.806Z,45.87
2023-04-22T07:42:22.355Z,45.58
2023-04-22T07:44:48.947Z,45.53
2023-04-22T07:47:15.510Z,45.53
2023-04-22T07:49:43.359Z,45.61
2023-04-22T07:52:09.915Z,45.93
2023-04-22T07:54:36.476Z,45.86
2023-04-22T07:57:03.149Z,45.66
2023-04-22T07:59:29.701Z,45.53
2023-04-22T08:01:56.262Z,45.83
2023-04-22T08:04:23.963Z,45.50
2023-04-22T08:06:50.974Z,45.59
2023-04-22T08:09:17.509Z,45.01
2023-04-22T08:11:44.075Z,45.83
2023-04-22T08:14:10.642Z,45.33
2023-04-22T08:16:39.445Z,45.73
2023-04-22T08:19:05.997Z,45.14
2023-04-22T08:21:33.022Z,45.53
2023-04-22T08:23:59.532Z,45.47
2023-04-22T08:26:26.075Z,45.33
2023-04-22T08:28:52.636Z,45.34
2023-04-22T08:31:19.239Z,45.30
2023-04-22T08:33:45.868Z,45.40
2023-04-22T08:36:13.072Z,45.50
2023-04-22T08:38:39.574Z,45.35
2023-04-22T08:41:07.047Z,45.48
2023-04-22T08:43:34.571Z,45.41
2023-04-22T08:46:02.219Z,45.11
2023-04-22T08:48:28.913Z,44.80
2023-04-22T08:50:55.504Z,45.30
2023-04-22T08:53:24.373Z,45.26
2023-04-22T08:55:51.848Z,44.98
2023-04-22T08:58:18.399Z,45.15
2023-04-22T09:00:45.308Z,44.48
2023-04-22T09:03:12.644Z,44.83
2023-04-22T09:05:40.726Z,44.54
2023-04-22T09:08:08.078Z,44.78
2023-04-22T09:10:38.332Z,45.00
2023-04-22T09:13:06.377Z,45.19
2023-04-22T09:15:33.797Z,45.14
2023-04-22T09:18:02.715Z,44.88
2023-04-22T09:20:30.523Z,44.82
2023-04-22T09:23:01.954Z,45.95
2023-04-22T09:25:28.683Z,45.91
2023-04-22T09:27:59.453Z,46.44
2023-04-22T09:30:29.793Z,46.13
2023-04-22T09:33:01.506Z,46.37
2023-04-22T09:35:32.815Z,45.88
2023-04-22T09:38:01.504Z,46.17
2023-04-22T09:40:31.888Z,46.04
2023-04-22T09:43:01.690Z,46.03
2023-04-22T09:45:33.084Z,45.88
2023-04-22T09:48:19.611Z,45.80
2023-04-22T09:50:48.724Z,45.93
2023-04-22T09:53:17.781Z,45.64
2023-04-22T09:55:47.841Z,46.09
2023-04-22T09:58:16.569Z,45.58
2023-04-22T10:00:51.429Z,45.90
2023-04-22T10:03:18.696Z,45.75
2023-04-22T10:05:46.225Z,45.88
2023-04-22T10:08:14.439Z,45.01
2023-04-22T10:10:41.551Z,45.22
2023-04-22T10:13:08.722Z,45.09
2023-04-22T10:15:48.664Z,45.10
2023-04-22T10:18:21.233Z,45.30
2023-04-22T10:20:48.767Z,45.22
2023-04-22T10:23:19.736Z,45.21
2023-04-22T10:25:53.022Z,45.55
2023-04-22T10:28:21.217Z,45.20
2023-04-22T10:30:48.552Z,45.22
2023-04-22T10:33:20.920Z,45.45
2023-04-22T10:36:10.659Z,45.41
2023-04-22T10:38:41.325Z,44.90
2023-04-22T10:41:14.000Z,45.43
2023-04-22T10:43:42.056Z,44.73
2023-04-22T10:46:37.739Z,45.45
2023-04-22T10:49:12.585Z,44.57
2023-04-22T10:51:43.035Z,44.87
2023-04-22T10:54:36.561Z,44.53
2023-04-22T10:57:12.067Z,45.07
2023-04-22T10:59:48.808Z,44.51
2023-04-22T11:02:17.697Z,44.73
2023-04-22T11:04:44.453Z,45.35
2023-04-22T11:07:26.607Z,44.78
2023-04-22T11:10:00.885Z,45.00
2023-04-22T11:12:39.190Z,45.64
2023-04-22T11:15:06.886Z,45.38
2023-04-22T11:17:34.085Z,45.01
2023-04-22T11:20:01.233Z,45.40
2023-04-22T11:22:28.065Z,45.22
2023-04-22T11:24:58.983Z,44.90
2023-04-22T11:27:26.904Z,45.58
2023-04-22T11:30:02.718Z,46.22
2023-04-22T11:32:29.655Z,45.84
2023-04-22T11:34:57.280Z,45.66
2023-04-22T11:37:24.772Z,45.88
2023-04-22T11:42:22.875Z,45.38
2023-04-22T11:44:51.192Z,45.35
2023-04-22T11:47:17.808Z,45.81
2023-04-22T11:50:01.956Z,45.21
2023-04-22T11:52:51.786Z,45.26
2023-04-22T11:55:27.052Z,45.45
2023-04-22T11:57:56.220Z,45.19
2023-04-22T12:00:24.378Z,45.19
2023-04-22T12:02:59.758Z,44.87
2023-04-22T12:05:34.044Z,45.47
2023-04-22T12:08:06.640Z,45.15
2023-04-22T12:10:33.170Z,45.18
2023-04-22T12:13:01.955Z,44.83
2023-04-22T12:15:38.036Z,45.45
2023-04-22T12:18:04.676Z,45.00
2023-04-22T12:20:35.531Z,45.14
2023-04-22T12:23:03.314Z,45.26
2023-04-22T12:25:30.021Z,45.43
2023-04-22T12:27:57.511Z,45.93
2023-04-22T12:30:24.902Z,45.72
2023-04-22T12:32:52.384Z,45.65
2023-04-22T12:35:18.988Z,45.96
2023-04-22T12:37:45.538Z,45.81
2023-04-22T12:40:12.342Z,45.99
2023-04-22T12:42:38.936Z,45.87
2023-04-22T12:45:05.933Z,45.92
2023-04-22T12:47:32.502Z,46.19
2023-04-22T12:50:01.261Z,46.00
2023-04-22T12:52:27.818Z,45.80
2023-04-22T12:54:54.316Z,45.47
2023-04-22T12:57:20.866Z,46.25
2023-04-22T12:59:47.742Z,45.72
2023-04-22T13:02:14.376Z,45.71
2023-04-22T13:04:41.335Z,46.31
2023-04-22T13:07:07.996Z,45.81
2023-04-22T13:09:34.550Z,46.41
2023-04-22T13:12:01.230Z,46.35
2023-04-22T13:14:27.782Z,46.53
2023-04-22T13:16:54.300Z,46.00
2023-04-22T13:19:20.870Z,46.04
2023-04-22T13:21:47.384Z,46.07
2023-04-22T13:24:13.883Z,46.01
2023-04-22T13:26:40.415Z,46.61
2023-04-22T13:29:14.073Z,46.78
2023-04-22T13:31:44.526Z,46.36
2023-04-22T13:34:11.729Z,46.29
2023-04-22T13:36:38.276Z,46.78
2023-04-22T13:39:05.095Z,46.87
2023-04-22T13:41:31.724Z,47.00
2023-04-22T13:43:59.664Z,46.55
2023-04-22T13:46:27.217Z,46.54
2023-04-22T13:48:54.777Z,46.46
2023-04-22T13:51:21.339Z,46.73
2023-04-22T13:53:47.877Z,46.73
2023-04-22T13:56:14.523Z,46.84
2023-04-22T13:58:42.520Z,46.62
2023-04-22T14:01:09.334Z,47.01
2023-04-22T14:03:36.435Z,46.62
2023-04-22T14:06:03.828Z,46.97
2023-04-22T14:08:30.658Z,47.38
2023-04-22T14:10:59.245Z,47.11
2023-04-22T14:13:29.915Z,47.32
2023-04-22T14:15:56.598Z,47.30
2023-04-22T14:18:23.505Z,46.92
2023-04-22T14:20:51.921Z,46.60
2023-04-22T14:23:19.064Z,47.28
2023-04-22T14:25:46.675Z,46.74
2023-04-22T14:28:13.989Z,47.38
2023-04-22T14:30:41.275Z,47.73
2023-04-22T14:33:08.584Z,47.11
2023-04-22T14:35:36.089Z,47.44
2023-04-22T14:38:04.912Z,47.10
2023-04-22T14:40:31.578Z,47.18
2023-04-22T14:43:00.576Z,47.57
2023-04-22T14:45:29.297Z,47.51
2023-04-22T14:47:56.881Z,47.32
2023-04-22T14:50:23.615Z,47.32
2023-04-22T14:52:50.763Z,47.72
2023-04-22T14:55:23.324Z,47.59
2023-04-22T14:57:53.176Z,47.62
2023-04-22T15:00:19.892Z,47.36
2023-04-22T15:02:46.716Z,47.82
2023-04-22T15:05:13.420Z,47.41
2023-04-22T15:07:39.986Z,48.07
2023-04-22T15:10:07.033Z,48.08
2023-04-22T15:12:33.625Z,48.20
2023-04-22T15:15:00.185Z,47.90
2023-04-22T15:17:27.403Z,47.89
2023-04-22T15:19:57.538Z,48.06
2023-04-22T15:22:25.399Z,48.40
2023-04-22T15:24:52.054Z,48.18
2023-04-22T15:27:18.767Z,48.58
2023-04-22T15:29:46.499Z,48.21
2023-04-22T15:32:13.109Z,48.27
2023-04-22T15:34:39.690Z,48.49
2023-04-22T15:37:06.274Z,48.38
2023-04-22T15:39:32.810Z,48.54
2023-04-22T15:41:59.343Z,48.38
2023-04-22T15:44:25.947Z,48.29
2023-04-22T15:46:52.815Z,48.38
2023-04-22T15:49:19.412Z,48.09
2023-04-22T15:51:46.039Z,48.19
2023-04-22T15:54:12.755Z,48.76
2023-04-22T15:56:39.300Z,48.70
2023-04-22T15:59:05.815Z,48.75
2023-04-22T16:01:32.627Z,48.60
2023-04-22T16:03:59.415Z,48.99
2023-04-22T16:06:26.043Z,48.96
2023-04-22T16:08:52.711Z,48.74
2023-04-22T16:11:19.229Z,48.84
2023-04-22T16:13:46.392Z,48.85
2023-04-22T16:16:13.053Z,49.14
2023-04-22T16:18:42.126Z,49.10
2023-04-22T16:21:10.612Z,48.56
2023-04-22T16:23:37.436Z,49.19
2023-04-22T16:26:05.733Z,49.16
2023-04-22T16:28:32.815Z,48.82
2023-04-22T16:30:59.508Z,49.17
2023-04-22T16:33:26.126Z,49.15
2023-04-22T16:35:52.708Z,49.42
2023-04-22T16:38:19.233Z,49.56
2023-04-22T16:40:45.930Z,49.32
2023-04-22T16:43:13.023Z,49.99
2023-04-22T16:45:39.757Z,49.46
2023-04-22T16:48:06.734Z,49.46
2023-04-22T16:50:33.357Z,50.03
2023-04-22T16:52:59.909Z,49.93
2023-04-22T16:55:26.458Z,50.21
2023-04-22T16:57:53.032Z,50.04
2023-04-22T17:00:20.813Z,50.23
2023-04-22T17:02:47.480Z,50.34
2023-04-22T17:05:14.160Z,50.05
2023-04-22T17:07:40.922Z,49.85
2023-04-22T17:10:08.065Z,49.96
2023-04-22T17:12:34.697Z,49.63
2023-04-22T17:15:01.241Z,49.23
2023-04-22T17:17:27.949Z,49.40
2023-04-22T17:19:54.510Z,49.16
2023-04-22T17:22:21.229Z,49.44
2023-04-22T17:24:47.822Z,49.10
2023-04-22T17:27:15.778Z,49.22
2023-04-22T17:29:42.724Z,49.17
2023-04-22T17:32:09.526Z,49.43
2023-04-22T17:34:36.098Z,48.89
2023-04-22T17:37:03.256Z,49.12
2023-04-22T17:39:30.909Z,48.46
2023-04-22T17:41:58.577Z,48.78
2023-04-22T17:44:26.046Z,49.14
2023-04-22T17:46:52.830Z,48.80
2023-04-22T17:49:19.420Z,48.73
2023-04-22T17:51:45.990Z,49.05
2023-04-22T17:54:12.856Z,49.00
2023-04-22T17:56:39.451Z,48.17
2023-04-22T17:59:06.072Z,48.18
2023-04-22T18:01:32.677Z,48.50
2023-04-22T18:03:59.528Z,48.35
2023-04-22T18:06:26.993Z,48.89
2023-04-22T18:08:53.576Z,48.70
2023-04-22T18:11:20.101Z,48.01
2023-04-22T18:13:46.649Z,48.54
2023-04-22T18:16:13.542Z,48.42
2023-04-22T18:18:40.076Z,48.26
2023-04-22T18:21:06.632Z,48.43
2023-04-22T18:23:35.086Z,48.28
2023-04-22T18:26:09.863Z,48.59
2023-04-22T18:28:39.697Z,48.15
2023-04-22T18:31:07.890Z,48.43
2023-04-22T18:33:34.733Z,48.76
2023-04-22T18:36:01.437Z,48.69
2023-04-22T18:38:28.202Z,48.87
2023-04-22T18:40:55.650Z,48.08
2023-04-22T18:43:22.411Z,48.28
2023-04-22T18:45:49.122Z,48.49
2023-04-22T18:48:16.087Z,48.63
2023-04-22T18:50:42.608Z,48.60
2023-04-22T18:53:09.146Z,48.90
2023-04-22T18:55:35.834Z,49.32
2023-04-22T18:58:02.370Z,49.40
2023-04-22T19:00:29.048Z,49.27
2023-04-22T19:02:56.114Z,48.93
2023-04-22T19:05:22.833Z,49.60
2023-04-22T19:07:49.376Z,49.25
2023-04-22T19:10:15.965Z,49.80
2023-04-22T19:12:42.583Z,49.09
2023-04-22T19:15:09.572Z,49.26
2023-04-22T19:17:36.173Z,49.76
2023-04-22T19:20:02.747Z,50.01
2023-04-22T19:22:29.409Z,49.24
2023-04-22T19:24:57.682Z,49.27
2023-04-22T19:27:25.496Z,49.57
2023-04-22T19:29:53.438Z,49.97
2023-04-22T19:32:20.837Z,49.76
2023-04-22T19:34:47.799Z,49.94
2023-04-22T19:37:14.381Z,49.89
2023-04-22T19:39:41.297Z,49.57
2023-04-22T19:42:08.169Z,50.11
2023-04-22T19:44:34.748Z,49.88
2023-04-22T19:47:01.455Z,49.81
2023-04-22T19:49:31.052Z,50.14
2023-04-22T19:51:58.363Z,49.66
2023-04-22T19:54:28.141Z,50.25
2023-04-22T19:56:56.330Z,50.36
2023-04-22T19:59:23.015Z,50.36
2023-04-22T20:01:49.801Z,49.83
2023-04-22T20:04:16.777Z,49.55
2023-04-22T20:06:44.886Z,50.10
2023-04-22T20:09:12.719Z,50.17
2023-04-22T20:11:40.645Z,49.68
2023-04-22T20:14:09.739Z,49.89
2023-04-22T20:16:37.470Z,50.01
2023-04-22T20:19:04.534Z,49.86
2023-04-22T20:21:34.344Z,49.84
2023-04-22T20:24:04.187Z,49.87
2023-04-22T20:26:32.598Z,50.03
2023-04-22T20:29:01.191Z,49.84
2023-04-22T20:31:27.965Z,49.58
2023-04-22T20:33:54.659Z,49.48
2023-04-22T20:36:22.460Z,49.72
2023-04-22T20:38:50.951Z,49.69
2023-04-22T20:41:20.765Z,49.39
2023-04-22T20:43:47.474Z,49.76
2023-04-22T20:46:14.093Z,49.40
2023-04-22T20:48:41.126Z,49.47
2023-04-22T20:51:07.701Z,50.05
2023-04-22T20:53:34.725Z,49.42
2023-04-22T20:56:01.291Z,49.80
2023-04-22T20:58:28.398Z,49.39
2023-04-22T21:00:55.037Z,49.55
2023-04-22T21:03:22.834Z,49.75
2023-04-22T21:05:50.135Z,49.31
2023-04-22T21:08:20.841Z,49.81
2023-04-22T21:10:47.823Z,49.73
2023-04-22T21:13:15.031Z,49.74
2023-04-22T21:15:44.739Z,49.97
2023-04-22T21:18:14.280Z,49.78
2023-04-22T21:20:45.151Z,50.09
2023-04-22T21:23:13.523Z,50.07
2023-04-22T21:25:40.664Z,49.94
2023-04-22T21:28:07.679Z,50.09
2023-04-22T21:30:34.639Z,50.17
2023-04-22T21:33:01.286Z,49.75
2023-04-22T21:35:27.971Z,50.32
2023-04-22T21:37:55.391Z,50.56
2023-04-22T21:40:22.800Z,50.35
2023-04-22T21:42:49.854Z,50.56
2023-04-22T21:45:17.336Z,50.42
2023-04-22T21:47:43.898Z,50.29
2023-04-22T21:50:10.777Z,50.59
2023-04-22T21:52:38.040Z,49.93
2023-04-22T21:55:05.818Z,50.62
2023-04-22T21:57:32.499Z,50.38
2023-04-22T21:59:59.054Z,50.29
2023-04-22T22:02:28.520Z,50.78
2023-04-22T22:04:55.327Z,50.37
2023-04-22T22:07:22.035Z,50.68
2023-04-22T22:09:48.867Z,50.42
2023-04-22T22:12:15.704Z,50.94
2023-04-22T22:14:43.407Z,50.78
2023-04-22T22:17:10.057Z,50.93
2023-04-22T22:19:36.629Z,50.69
2023-04-22T22:22:03.180Z,50.79
2023-04-22T22:24:29.794Z,50.66
2023-04-22T22:26:57.914Z,50.81
2023-04-22T22:29:24.492Z,50.74
2023-04-22T22:31:51.092Z,51.02
2023-04-22T22:34:17.677Z,50.81
2023-04-22T22:36:44.183Z,50.87
2023-04-22T22:39:14.293Z,51.05
2023-04-22T22:41:43.214Z,51.02
2023-04-22T22:44:10.449Z,50.82
2023-04-22T22:46:37.013Z,51.26
2023-04-22T22:49:03.586Z,50.84
2023-04-22T22:51:30.137Z,51.37
2023-04-22T22:53:56.702Z,51.12
2023-04-22T22:56:23.359Z,50.71
2023-04-22T22:58:50.052Z,50.88
2023-04-22T23:01:16.720Z,50.85
2023-04-22T23:03:43.614Z,50.80
2023-04-22T23:06:11.716Z,51.30
2023-04-22T23:08:38.355Z,51.05
2023-04-22T23:11:04.875Z,51.24
2023-04-22T23:13:31.461Z,51.31
2023-04-22T23:15:58.107Z,51.32
2023-04-22T23:18:26.705Z,50.83
2023-04-22T23:20:53.663Z,50.81
2023-04-22T23:23:21.736Z,51.08
2023-04-22T23:25:48.503Z,50.80
2023-04-22T23:28:15.198Z,50.99
2023-04-22T23:30:42.446Z,51.13
2023-04-22T23:33:12.470Z,51.27
2023-04-22T23:35:41.605Z,50.52
2023-04-22T23:38:11.070Z,51.00
2023-04-22T23:40:37.628Z,51.48
2023-04-22T23:43:04.174Z,51.05
2023-04-22T23:45:30.878Z,51.23
2023-04-22T23:47:57.517Z,50.92
2023-04-22T23:50:24.213Z,50.75
2023-04-22T23:52:50.755Z,51.30
2023-04-22T23:55:17.820Z,50.98
2023-04-22T23:57:44.590Z,51.31
